RJAARJTO

Guest
Details From RJAA - NARITA INTL
To RJTO - RJTO-Oshima
Flight Number -
Tags generated
Created
Modified
Stats Distance 78 nm / 145 km
Max Altitude 3,000 ft / 914 m
Waypoints 3
Social Downloads 0
Likes 0
Share VATSIM

Download

Looking for another format? Having issues loading an existing format? Contact us
Advertisement - Login to hide

Notes

Basic altitude profile: - Ascent Rate: 2500ft/min - Ascent Speed: 250kts - Cruise Altitude: 35000ft - Cruise Speed: 420kts - Descent Rate: 1500ft/min - Descent Speed: 250kts Options: - Use NATs: yes - Use PACOTS: yes - Use low airways: yes - Use high airways: yes

Route

RJAA HATSU RJTO

ID Type Via Altitude Latitude Longitude Leg Dist Tot Dist Heading (true) Name
O RJAA APT - 0 ft / 0 m 35.77655˚ 140.38277˚ - 0 nm - NARITA INTL
HATSU FIX - 3,000 ft / 914 m 34.97805˚ 139.51932˚ 63 nm 63 nm 222° / 221° -
O RJTO APT - 0 ft / 0 m 34.78192˚ 139.36031˚ 14 nm 78 nm 214° / 214° RJTO-Oshima

Altitude Profile

Advertisement - Login to hide

RJAA

Details ICAO RJAA (NRT)
Name NARITA INTL
Region Japan
Timezone Asia/Tokyo (UTC+9.0)
Stats Elevation 141 ft / 43 m (AMSL)
Location 35.776552° 140.382770°
Runways 2
Magnetic Variation 7.431° W

METAR

RJAA 220630Z 14010KT 9999 FEW030 23/12 Q1017 NOSIG

Decode

TAF

TAF RJAA 220506Z 2206/2312 14005KT 9999 FEW030 BECMG 2215/2217 05005KT BECMG 2221/2300 14008KT BECMG 2306/2309 05008KT 4000 -SHRA BR FEW004 BKN008 TEMPO 2306/2312 3000 SHRA BR FEW003 BKN005

Decode

Departure Runways

ID Width Length Bearing (true) Bearing (mag) Surface Threshold Offset Overrun Length
16L 196 ft / 60 m 7,162 ft / 2,183 m 149.61° 157.04° Asphalt 190 ft / 58 m 0 ft / 0 m
16R 196 ft / 60 m 13,142 ft / 4,006 m 149.61° 157.04° Asphalt 0 ft / 0 m 410 ft / 125 m
34L 196 ft / 60 m 13,142 ft / 4,006 m 329.62° 337.05° Asphalt 0 ft / 0 m 415 ft / 126 m
34R 196 ft / 60 m 7,162 ft / 2,183 m 329.62° 337.05° Asphalt 190 ft / 58 m 0 ft / 0 m

RJTO

Details ICAO RJTO (OIM)
Name RJTO-Oshima
Region Japan
Timezone Asia/Tokyo (UTC+9.0)
Stats Elevation 125 ft / 38 m (AMSL)
Location 34.781923° 139.360315°
Runways 1
Magnetic Variation 7.265° W

METAR

RJTO 220600Z 04010KT 010V080 9999 FEW030 22/14 Q1018

Decode

TAF

Not found

Destination Runways

ID Width Length Bearing (true) Bearing (mag) Surface Threshold Offset Overrun Length
03 151 ft / 46 m 6,013 ft / 1,833 m 19.73° 27.00° Asphalt 0 ft / 0 m 226 ft / 69 m
21 151 ft / 46 m 6,013 ft / 1,833 m 199.73° 207.00° Asphalt 0 ft / 0 m 200 ft / 61 m

Approach Navaids

Runway Type Ident Frequency Range Bearing (true) Bearing (mag) Slope Elevation
03 Localiser IOS 109.35 MHz 18 nm / 33 km 19.74° 27.01° - 125 ft / 38 m (AMSL)
03 DME IOS 109.35 MHz 18 nm / 33 km - - - 125 ft / 38 m (AMSL)

Popular Alternatives